sensor_id;sensor_type;location;lat;lon;timestamp;temperature;humidity
1476;DHT22;730;48.870;12.542;2024-03-08T00:00:24;3.00;1.00
1476;DHT22;730;48.870;12.542;2024-03-08T00:02:50;2.90;1.00
1476;DHT22;730;48.870;12.542;2024-03-08T00:05:16;2.90;1.00
1476;DHT22;730;48.870;12.542;2024-03-08T00:07:44;2.90;1.00
1476;DHT22;730;48.870;12.542;2024-03-08T00:10:11;2.80;1.00
1476;DHT22;730;48.870;12.542;2024-03-08T00:12:41;2.80;1.00
1476;DHT22;730;48.870;12.542;2024-03-08T00:15:11;2.70;1.00
1476;DHT22;730;48.870;12.542;2024-03-08T00:17:43;2.70;1.00
1476;DHT22;730;48.870;12.542;2024-03-08T00:20:10;2.70;1.00
1476;DHT22;730;48.870;12.542;2024-03-08T00:22:37;2.60;1.00
1476;DHT22;730;48.870;12.542;2024-03-08T00:25:04;2.70;1.00
1476;DHT22;730;48.870;12.542;2024-03-08T00:27:30;2.70;1.00
1476;DHT22;730;48.870;12.542;2024-03-08T00:29:59;2.70;1.00
1476;DHT22;730;48.870;12.542;2024-03-08T00:32:26;2.70;1.00
1476;DHT22;730;48.870;12.542;2024-03-08T00:34:53;2.70;1.00
1476;DHT22;730;48.870;12.542;2024-03-08T00:37:23;2.70;1.00
1476;DHT22;730;48.870;12.542;2024-03-08T00:39:50;2.60;1.00
1476;DHT22;730;48.870;12.542;2024-03-08T00:42:17;2.60;1.00
1476;DHT22;730;48.870;12.542;2024-03-08T00:44:43;2.60;1.00
1476;DHT22;730;48.870;12.542;2024-03-08T00:47:09;2.70;1.00
1476;DHT22;730;48.870;12.542;2024-03-08T00:49:35;2.70;1.00
1476;DHT22;730;48.870;12.542;2024-03-08T00:52:05;2.80;1.00
1476;DHT22;730;48.870;12.542;2024-03-08T00:54:34;2.80;1.00
1476;DHT22;730;48.870;12.542;2024-03-08T00:57:02;2.80;1.00
1476;DHT22;730;48.870;12.542;2024-03-08T00:59:29;2.80;1.00
1476;DHT22;730;48.870;12.542;2024-03-08T01:01:55;2.90;1.00
1476;DHT22;730;48.870;12.542;2024-03-08T01:04:22;2.90;1.00
1476;DHT22;730;48.870;12.542;2024-03-08T01:06:49;2.90;1.00
1476;DHT22;730;48.870;12.542;2024-03-08T01:09:15;2.90;1.00
1476;DHT22;730;48.870;12.542;2024-03-08T01:11:46;3.00;1.00
1476;DHT22;730;48.870;12.542;2024-03-08T01:14:12;3.00;1.00
1476;DHT22;730;48.870;12.542;2024-03-08T01:16:38;3.00;1.00
1476;DHT22;730;48.870;12.542;2024-03-08T01:19:04;3.00;1.00
1476;DHT22;730;48.870;12.542;2024-03-08T01:21:30;3.00;1.00
1476;DHT22;730;48.870;12.542;2024-03-08T01:23:56;3.00;1.00
1476;DHT22;730;48.870;12.542;2024-03-08T01:26:22;3.00;1.00
1476;DHT22;730;48.870;12.542;2024-03-08T01:28:49;3.00;1.00
1476;DHT22;730;48.870;12.542;2024-03-08T01:31:15;2.90;1.00
1476;DHT22;730;48.870;12.542;2024-03-08T01:33:42;2.90;1.00
1476;DHT22;730;48.870;12.542;2024-03-08T01:36:08;2.90;1.00
1476;DHT22;730;48.870;12.542;2024-03-08T01:38:34;2.90;1.00
1476;DHT22;730;48.870;12.542;2024-03-08T01:41:02;2.80;1.00
1476;DHT22;730;48.870;12.542;2024-03-08T01:43:29;2.80;1.00
1476;DHT22;730;48.870;12.542;2024-03-08T01:45:57;2.80;1.00
1476;DHT22;730;48.870;12.542;2024-03-08T01:48:26;2.80;1.00
1476;DHT22;730;48.870;12.542;2024-03-08T01:50:54;2.80;1.00
1476;DHT22;730;48.870;12.542;2024-03-08T01:53:20;2.80;1.00
1476;DHT22;730;48.870;12.542;2024-03-08T01:55:47;2.80;1.00
1476;DHT22;730;48.870;12.542;2024-03-08T01:58:14;2.80;1.00
1476;DHT22;730;48.870;12.542;2024-03-08T02:00:44;2.80;1.00
1476;DHT22;730;48.870;12.542;2024-03-08T02:03:12;2.80;1.00
1476;DHT22;730;48.870;12.542;2024-03-08T02:05:40;2.80;1.00
1476;DHT22;730;48.870;12.542;2024-03-08T02:08:07;2.70;1.00
1476;DHT22;730;48.870;12.542;2024-03-08T02:10:38;2.80;1.00
1476;DHT22;730;48.870;12.542;2024-03-08T02:13:05;2.80;1.00
1476;DHT22;730;48.870;12.542;2024-03-08T02:15:55;2.80;1.00
1476;DHT22;730;48.870;12.542;2024-03-08T02:18:23;2.80;1.00
1476;DHT22;730;48.870;12.542;2024-03-08T02:20:51;2.80;1.00
1476;DHT22;730;48.870;12.542;2024-03-08T02:23:19;2.80;1.00
1476;DHT22;730;48.870;12.542;2024-03-08T02:25:46;2.80;1.00
1476;DHT22;730;48.870;12.542;2024-03-08T02:28:23;2.80;1.00
1476;DHT22;730;48.870;12.542;2024-03-08T02:30:49;2.80;1.00
1476;DHT22;730;48.870;12.542;2024-03-08T02:33:26;2.80;1.00
1476;DHT22;730;48.870;12.542;2024-03-08T02:35:52;2.70;1.00
1476;DHT22;730;48.870;12.542;2024-03-08T02:38:20;2.70;1.00
1476;DHT22;730;48.870;12.542;2024-03-08T02:40:48;2.70;1.00
1476;DHT22;730;48.870;12.542;2024-03-08T02:43:15;2.70;1.00
1476;DHT22;730;48.870;12.542;2024-03-08T02:45:42;2.70;1.00
1476;DHT22;730;48.870;12.542;2024-03-08T02:48:08;2.60;1.00
1476;DHT22;730;48.870;12.542;2024-03-08T02:50:35;2.60;1.00
1476;DHT22;730;48.870;12.542;2024-03-08T02:53:02;2.60;1.00
1476;DHT22;730;48.870;12.542;2024-03-08T02:55:33;2.60;1.00
1476;DHT22;730;48.870;12.542;2024-03-08T02:58:02;2.50;1.00
1476;DHT22;730;48.870;12.542;2024-03-08T03:00:34;2.50;1.00
1476;DHT22;730;48.870;12.542;2024-03-08T03:03:00;2.40;1.00
1476;DHT22;730;48.870;12.542;2024-03-08T03:05:29;2.30;1.00
1476;DHT22;730;48.870;12.542;2024-03-08T03:08:03;2.20;1.00
1476;DHT22;730;48.870;12.542;2024-03-08T03:10:35;2.20;1.00
1476;DHT22;730;48.870;12.542;2024-03-08T03:13:01;2.20;1.00
1476;DHT22;730;48.870;12.542;2024-03-08T03:15:28;2.10;1.00
1476;DHT22;730;48.870;12.542;2024-03-08T03:17:54;2.10;1.00
1476;DHT22;730;48.870;12.542;2024-03-08T03:20:21;2.10;1.00
1476;DHT22;730;48.870;12.542;2024-03-08T03:22:52;2.10;1.00
1476;DHT22;730;48.870;12.542;2024-03-08T03:25:19;2.10;1.00
1476;DHT22;730;48.870;12.542;2024-03-08T03:27:59;2.10;1.00
1476;DHT22;730;48.870;12.542;2024-03-08T03:30:25;2.10;1.00
1476;DHT22;730;48.870;12.542;2024-03-08T03:32:52;2.10;1.00
1476;DHT22;730;48.870;12.542;2024-03-08T03:35:21;2.20;1.00
1476;DHT22;730;48.870;12.542;2024-03-08T03:37:48;2.20;1.00
1476;DHT22;730;48.870;12.542;2024-03-08T03:40:28;2.10;1.00
1476;DHT22;730;48.870;12.542;2024-03-08T03:42:55;2.10;1.00
1476;DHT22;730;48.870;12.542;2024-03-08T03:45:22;2.10;1.00
1476;DHT22;730;48.870;12.542;2024-03-08T03:47:48;2.10;1.00
1476;DHT22;730;48.870;12.542;2024-03-08T03:50:14;2.10;1.00
1476;DHT22;730;48.870;12.542;2024-03-08T03:52:40;2.10;1.00
1476;DHT22;730;48.870;12.542;2024-03-08T03:55:08;2.10;1.00
1476;DHT22;730;48.870;12.542;2024-03-08T03:57:34;2.10;1.00
1476;DHT22;730;48.870;12.542;2024-03-08T04:00:00;2.10;1.00
1476;DHT22;730;48.870;12.542;2024-03-08T04:02:28;2.10;1.00
1476;DHT22;730;48.870;12.542;2024-03-08T04:04:54;2.00;1.00
1476;DHT22;730;48.870;12.542;2024-03-08T04:07:21;2.10;1.00
1476;DHT22;730;48.870;12.542;2024-03-08T04:09:47;2.10;1.00
1476;DHT22;730;48.870;12.542;2024-03-08T04:12:13;2.00;1.00
1476;DHT22;730;48.870;12.542;2024-03-08T04:14:42;2.00;1.00
1476;DHT22;730;48.870;12.542;2024-03-08T04:17:08;2.00;1.00
1476;DHT22;730;48.870;12.542;2024-03-08T04:19:38;2.00;1.00
1476;DHT22;730;48.870;12.542;2024-03-08T04:22:08;2.00;1.00
1476;DHT22;730;48.870;12.542;2024-03-08T04:24:34;2.00;1.00
1476;DHT22;730;48.870;12.542;2024-03-08T04:27:00;1.90;1.00
1476;DHT22;730;48.870;12.542;2024-03-08T04:29:26;1.90;1.00
1476;DHT22;730;48.870;12.542;2024-03-08T04:31:52;1.90;1.00
1476;DHT22;730;48.870;12.542;2024-03-08T04:34:24;1.90;1.00
1476;DHT22;730;48.870;12.542;2024-03-08T04:36:50;1.90;1.00
1476;DHT22;730;48.870;12.542;2024-03-08T04:39:16;1.90;1.00
1476;DHT22;730;48.870;12.542;2024-03-08T04:41:44;1.90;1.00
1476;DHT22;730;48.870;12.542;2024-03-08T04:44:11;1.90;1.00
1476;DHT22;730;48.870;12.542;2024-03-08T04:46:38;1.90;1.00
1476;DHT22;730;48.870;12.542;2024-03-08T04:49:04;1.90;1.00
1476;DHT22;730;48.870;12.542;2024-03-08T04:51:33;1.80;1.00
1476;DHT22;730;48.870;12.542;2024-03-08T04:54:00;1.90;1.00
1476;DHT22;730;48.870;12.542;2024-03-08T04:56:26;1.90;1.00
1476;DHT22;730;48.870;12.542;2024-03-08T04:58:52;1.80;1.00
1476;DHT22;730;48.870;12.542;2024-03-08T05:01:18;1.80;1.00
1476;DHT22;730;48.870;12.542;2024-03-08T05:03:44;1.80;1.00
1476;DHT22;730;48.870;12.542;2024-03-08T05:06:10;1.80;1.00
1476;DHT22;730;48.870;12.542;2024-03-08T05:08:36;1.80;1.00
1476;DHT22;730;48.870;12.542;2024-03-08T05:11:02;1.80;1.00
1476;DHT22;730;48.870;12.542;2024-03-08T05:13:30;1.80;1.00
1476;DHT22;730;48.870;12.542;2024-03-08T05:15:56;1.80;1.00
1476;DHT22;730;48.870;12.542;2024-03-08T05:18:24;1.80;1.00
1476;DHT22;730;48.870;12.542;2024-03-08T05:20:50;1.70;1.00
1476;DHT22;730;48.870;12.542;2024-03-08T05:23:17;1.70;1.00
1476;DHT22;730;48.870;12.542;2024-03-08T05:25:45;1.70;1.00
1476;DHT22;730;48.870;12.542;2024-03-08T05:28:13;1.70;1.00
1476;DHT22;730;48.870;12.542;2024-03-08T05:30:39;1.60;1.00
1476;DHT22;730;48.870;12.542;2024-03-08T05:33:05;1.60;1.00
1476;DHT22;730;48.870;12.542;2024-03-08T05:35:31;1.60;1.00
1476;DHT22;730;48.870;12.542;2024-03-08T05:37:58;1.60;1.00
1476;DHT22;730;48.870;12.542;2024-03-08T05:40:24;1.50;1.00
1476;DHT22;730;48.870;12.542;2024-03-08T05:42:50;1.50;1.00
1476;DHT22;730;48.870;12.542;2024-03-08T05:45:16;1.50;1.00
1476;DHT22;730;48.870;12.542;2024-03-08T05:47:42;1.50;1.00
1476;DHT22;730;48.870;12.542;2024-03-08T05:50:08;1.50;1.00
1476;DHT22;730;48.870;12.542;2024-03-08T05:52:37;1.40;1.00
1476;DHT22;730;48.870;12.542;2024-03-08T05:55:06;1.40;1.00
1476;DHT22;730;48.870;12.542;2024-03-08T05:57:33;1.40;1.00
1476;DHT22;730;48.870;12.542;2024-03-08T05:59:59;1.50;1.00
1476;DHT22;730;48.870;12.542;2024-03-08T06:02:25;1.50;1.00
1476;DHT22;730;48.870;12.542;2024-03-08T06:04:51;1.60;1.00
1476;DHT22;730;48.870;12.542;2024-03-08T06:07:17;1.60;1.00
1476;DHT22;730;48.870;12.542;2024-03-08T06:09:43;1.70;1.00
1476;DHT22;730;48.870;12.542;2024-03-08T06:12:13;1.80;1.00
1476;DHT22;730;48.870;12.542;2024-03-08T06:14:45;1.80;1.00
1476;DHT22;730;48.870;12.542;2024-03-08T06:17:11;1.90;1.00
1476;DHT22;730;48.870;12.542;2024-03-08T06:19:37;2.10;1.00
1476;DHT22;730;48.870;12.542;2024-03-08T06:22:03;2.20;1.00
1476;DHT22;730;48.870;12.542;2024-03-08T06:24:32;2.40;1.00
1476;DHT22;730;48.870;12.542;2024-03-08T06:26:58;2.50;1.00
1476;DHT22;730;48.870;12.542;2024-03-08T06:29:24;2.70;1.00
1476;DHT22;730;48.870;12.542;2024-03-08T06:31:50;2.90;1.00
1476;DHT22;730;48.870;12.542;2024-03-08T06:34:16;3.10;1.00
1476;DHT22;730;48.870;12.542;2024-03-08T06:36:43;3.30;1.00
1476;DHT22;730;48.870;12.542;2024-03-08T06:39:09;3.50;1.00
1476;DHT22;730;48.870;12.542;2024-03-08T06:41:36;3.80;1.00
1476;DHT22;730;48.870;12.542;2024-03-08T06:44:03;4.00;1.00
1476;DHT22;730;48.870;12.542;2024-03-08T06:46:29;4.20;1.00
1476;DHT22;730;48.870;12.542;2024-03-08T06:48:55;4.50;1.00
1476;DHT22;730;48.870;12.542;2024-03-08T06:51:21;4.70;1.00
1476;DHT22;730;48.870;12.542;2024-03-08T06:53:48;5.00;1.00
1476;DHT22;730;48.870;12.542;2024-03-08T06:56:15;5.20;1.00
1476;DHT22;730;48.870;12.542;2024-03-08T06:58:41;5.40;1.00
1476;DHT22;730;48.870;12.542;2024-03-08T07:01:08;5.60;1.00
1476;DHT22;730;48.870;12.542;2024-03-08T07:03:41;5.80;1.00
1476;DHT22;730;48.870;12.542;2024-03-08T07:06:13;6.00;1.00
1476;DHT22;730;48.870;12.542;2024-03-08T07:08:40;6.30;1.00
1476;DHT22;730;48.870;12.542;2024-03-08T07:11:06;6.40;1.00
1476;DHT22;730;48.870;12.542;2024-03-08T07:13:32;6.60;1.00
1476;DHT22;730;48.870;12.542;2024-03-08T07:15:58;6.80;1.00
1476;DHT22;730;48.870;12.542;2024-03-08T07:18:26;7.00;1.00
1476;DHT22;730;48.870;12.542;2024-03-08T07:20:53;7.20;1.00
1476;DHT22;730;48.870;12.542;2024-03-08T07:23:19;7.40;1.00
1476;DHT22;730;48.870;12.542;2024-03-08T07:26:04;7.60;1.00
1476;DHT22;730;48.870;12.542;2024-03-08T07:28:30;7.80;1.00
1476;DHT22;730;48.870;12.542;2024-03-08T07:30:58;8.00;1.00
1476;DHT22;730;48.870;12.542;2024-03-08T07:33:47;8.10;1.00
1476;DHT22;730;48.870;12.542;2024-03-08T07:36:13;8.30;1.00
1476;DHT22;730;48.870;12.542;2024-03-08T07:38:40;8.40;1.00
1476;DHT22;730;48.870;12.542;2024-03-08T07:41:06;8.50;1.00
1476;DHT22;730;48.870;12.542;2024-03-08T07:43:32;8.60;1.00
1476;DHT22;730;48.870;12.542;2024-03-08T07:45:58;8.80;1.00
1476;DHT22;730;48.870;12.542;2024-03-08T07:48:25;8.90;1.00
1476;DHT22;730;48.870;12.542;2024-03-08T07:50:51;8.90;1.00
1476;DHT22;730;48.870;12.542;2024-03-08T07:53:17;9.00;1.00
1476;DHT22;730;48.870;12.542;2024-03-08T07:55:43;9.00;1.00
1476;DHT22;730;48.870;12.542;2024-03-08T07:58:10;9.00;1.00
1476;DHT22;730;48.870;12.542;2024-03-08T08:00:36;9.10;1.00
1476;DHT22;730;48.870;12.542;2024-03-08T08:03:03;9.20;1.00
1476;DHT22;730;48.870;12.542;2024-03-08T08:05:30;9.30;1.00
1476;DHT22;730;48.870;12.542;2024-03-08T08:08:04;9.30;1.00
1476;DHT22;730;48.870;12.542;2024-03-08T08:10:32;9.30;1.00
1476;DHT22;730;48.870;12.542;2024-03-08T08:12:59;9.30;1.00
1476;DHT22;730;48.870;12.542;2024-03-08T08:15:25;9.30;1.00
1476;DHT22;730;48.870;12.542;2024-03-08T08:17:51;9.50;1.00
1476;DHT22;730;48.870;12.542;2024-03-08T08:20:22;9.60;1.00
1476;DHT22;730;48.870;12.542;2024-03-08T08:22:49;9.60;1.00
1476;DHT22;730;48.870;12.542;2024-03-08T08:25:15;9.80;1.00
1476;DHT22;730;48.870;12.542;2024-03-08T08:27:41;9.90;1.00
1476;DHT22;730;48.870;12.542;2024-03-08T08:30:11;10.00;1.00
1476;DHT22;730;48.870;12.542;2024-03-08T08:32:38;10.00;1.00
1476;DHT22;730;48.870;12.542;2024-03-08T08:35:08;10.00;1.00
1476;DHT22;730;48.870;12.542;2024-03-08T08:37:35;9.90;1.00
1476;DHT22;730;48.870;12.542;2024-03-08T08:40:04;9.90;1.00
1476;DHT22;730;48.870;12.542;2024-03-08T08:42:36;10.00;1.00
1476;DHT22;730;48.870;12.542;2024-03-08T08:45:04;10.20;1.00
1476;DHT22;730;48.870;12.542;2024-03-08T08:47:35;10.40;1.00
1476;DHT22;730;48.870;12.542;2024-03-08T08:50:01;10.40;1.00
1476;DHT22;730;48.870;12.542;2024-03-08T08:52:27;10.50;1.00
1476;DHT22;730;48.870;12.542;2024-03-08T08:54:55;10.60;1.00
1476;DHT22;730;48.870;12.542;2024-03-08T08:57:21;10.60;1.00
1476;DHT22;730;48.870;12.542;2024-03-08T08:59:47;10.70;1.00
1476;DHT22;730;48.870;12.542;2024-03-08T09:02:13;10.80;1.00
1476;DHT22;730;48.870;12.542;2024-03-08T09:04:40;10.70;1.00
1476;DHT22;730;48.870;12.542;2024-03-08T09:07:06;10.70;1.00
1476;DHT22;730;48.870;12.542;2024-03-08T09:09:32;10.60;1.00
1476;DHT22;730;48.870;12.542;2024-03-08T09:11:58;10.50;1.00
1476;DHT22;730;48.870;12.542;2024-03-08T09:14:24;10.40;1.00
1476;DHT22;730;48.870;12.542;2024-03-08T09:16:52;10.40;1.00
1476;DHT22;730;48.870;12.542;2024-03-08T09:19:18;10.40;1.00
1476;DHT22;730;48.870;12.542;2024-03-08T09:21:45;10.50;1.00
1476;DHT22;730;48.870;12.542;2024-03-08T09:24:13;10.40;1.00
1476;DHT22;730;48.870;12.542;2024-03-08T09:26:39;10.50;1.00
1476;DHT22;730;48.870;12.542;2024-03-08T09:29:08;10.60;1.00
1476;DHT22;730;48.870;12.542;2024-03-08T09:31:34;10.70;1.00
1476;DHT22;730;48.870;12.542;2024-03-08T09:34:01;10.80;1.00
1476;DHT22;730;48.870;12.542;2024-03-08T09:36:27;10.80;1.00
1476;DHT22;730;48.870;12.542;2024-03-08T09:38:53;10.80;1.00
1476;DHT22;730;48.870;12.542;2024-03-08T09:41:19;10.80;1.00
1476;DHT22;730;48.870;12.542;2024-03-08T09:43:46;10.90;1.00
1476;DHT22;730;48.870;12.542;2024-03-08T09:46:12;10.90;1.00
1476;DHT22;730;48.870;12.542;2024-03-08T09:48:40;11.00;1.00
1476;DHT22;730;48.870;12.542;2024-03-08T09:51:07;11.10;1.00
1476;DHT22;730;48.870;12.542;2024-03-08T09:53:33;11.30;1.00
1476;DHT22;730;48.870;12.542;2024-03-08T09:56:00;11.40;1.00
1476;DHT22;730;48.870;12.542;2024-03-08T09:58:29;11.50;1.00
1476;DHT22;730;48.870;12.542;2024-03-08T10:01:08;11.50;1.00
1476;DHT22;730;48.870;12.542;2024-03-08T10:03:35;11.50;1.00
1476;DHT22;730;48.870;12.542;2024-03-08T10:06:01;11.60;1.00
1476;DHT22;730;48.870;12.542;2024-03-08T10:08:30;11.60;1.00
1476;DHT22;730;48.870;12.542;2024-03-08T10:10:57;11.70;1.00
1476;DHT22;730;48.870;12.542;2024-03-08T10:13:25;11.70;1.00
1476;DHT22;730;48.870;12.542;2024-03-08T10:15:58;11.80;1.00
1476;DHT22;730;48.870;12.542;2024-03-08T10:18:24;11.70;1.00
1476;DHT22;730;48.870;12.542;2024-03-08T10:21:10;11.70;1.00
1476;DHT22;730;48.870;12.542;2024-03-08T10:23:36;11.70;1.00
1476;DHT22;730;48.870;12.542;2024-03-08T10:26:10;11.70;1.00
1476;DHT22;730;48.870;12.542;2024-03-08T10:28:36;11.70;1.00
1476;DHT22;730;48.870;12.542;2024-03-08T10:31:03;11.80;1.00
1476;DHT22;730;48.870;12.542;2024-03-08T10:33:29;11.90;1.00
1476;DHT22;730;48.870;12.542;2024-03-08T10:35:55;12.00;1.00
1476;DHT22;730;48.870;12.542;2024-03-08T10:38:23;12.10;1.00
1476;DHT22;730;48.870;12.542;2024-03-08T10:40:50;12.10;1.00
1476;DHT22;730;48.870;12.542;2024-03-08T10:43:23;12.10;1.00
1476;DHT22;730;48.870;12.542;2024-03-08T10:48:55;12.10;1.00
1476;DHT22;730;48.870;12.542;2024-03-08T10:51:25;12.10;1.00
1476;DHT22;730;48.870;12.542;2024-03-08T10:53:52;12.20;1.00
1476;DHT22;730;48.870;12.542;2024-03-08T10:56:20;12.20;1.00
1476;DHT22;730;48.870;12.542;2024-03-08T10:58:47;12.40;1.00
1476;DHT22;730;48.870;12.542;2024-03-08T11:01:13;12.50;1.00
1476;DHT22;730;48.870;12.542;2024-03-08T11:09:03;12.70;1.00
1476;DHT22;730;48.870;12.542;2024-03-08T11:11:31;12.60;1.00
1476;DHT22;730;48.870;12.542;2024-03-08T11:13:58;12.70;1.00
1476;DHT22;730;48.870;12.542;2024-03-08T11:18:53;12.70;1.00
1476;DHT22;730;48.870;12.542;2024-03-08T11:21:20;12.80;1.00
1476;DHT22;730;48.870;12.542;2024-03-08T11:24:11;13.00;1.00
1476;DHT22;730;48.870;12.542;2024-03-08T11:26:39;13.10;1.00
1476;DHT22;730;48.870;12.542;2024-03-08T11:34:32;13.30;1.00
1476;DHT22;730;48.870;12.542;2024-03-08T11:36:59;13.30;1.00
1476;DHT22;730;48.870;12.542;2024-03-08T11:39:26;13.30;1.00
1476;DHT22;730;48.870;12.542;2024-03-08T11:41:52;13.30;1.00
1476;DHT22;730;48.870;12.542;2024-03-08T11:44:50;13.30;1.00
1476;DHT22;730;48.870;12.542;2024-03-08T11:47:16;13.10;1.00
1476;DHT22;730;48.870;12.542;2024-03-08T11:49:42;13.00;1.00
1476;DHT22;730;48.870;12.542;2024-03-08T11:52:11;13.00;1.00
1476;DHT22;730;48.870;12.542;2024-03-08T11:54:39;12.90;1.00
1476;DHT22;730;48.870;12.542;2024-03-08T11:57:05;13.00;1.00
1476;DHT22;730;48.870;12.542;2024-03-08T11:59:32;12.90;1.00
1476;DHT22;730;48.870;12.542;2024-03-08T12:02:01;12.80;1.00
1476;DHT22;730;48.870;12.542;2024-03-08T12:04:27;12.90;1.00
1476;DHT22;730;48.870;12.542;2024-03-08T12:06:53;12.80;1.00
1476;DHT22;730;48.870;12.542;2024-03-08T12:09:19;12.90;1.00
1476;DHT22;730;48.870;12.542;2024-03-08T12:11:48;12.90;1.00
1476;DHT22;730;48.870;12.542;2024-03-08T12:14:15;13.00;1.00
1476;DHT22;730;48.870;12.542;2024-03-08T12:16:42;13.00;1.00
1476;DHT22;730;48.870;12.542;2024-03-08T12:19:08;13.00;1.00
1476;DHT22;730;48.870;12.542;2024-03-08T12:21:35;13.00;1.00
1476;DHT22;730;48.870;12.542;2024-03-08T12:24:06;13.10;1.00
1476;DHT22;730;48.870;12.542;2024-03-08T12:26:36;13.20;1.00
1476;DHT22;730;48.870;12.542;2024-03-08T12:31:51;13.20;1.00
1476;DHT22;730;48.870;12.542;2024-03-08T12:34:19;13.40;1.00
1476;DHT22;730;48.870;12.542;2024-03-08T12:36:50;13.40;1.00
1476;DHT22;730;48.870;12.542;2024-03-08T12:39:18;13.40;1.00
1476;DHT22;730;48.870;12.542;2024-03-08T12:41:49;13.50;1.00
1476;DHT22;730;48.870;12.542;2024-03-08T12:44:20;13.50;1.00
1476;DHT22;730;48.870;12.542;2024-03-08T12:46:50;13.60;1.00
1476;DHT22;730;48.870;12.542;2024-03-08T12:49:17;13.70;1.00
1476;DHT22;730;48.870;12.542;2024-03-08T12:51:44;13.60;1.00
1476;DHT22;730;48.870;12.542;2024-03-08T12:54:11;13.70;1.00
1476;DHT22;730;48.870;12.542;2024-03-08T12:56:37;13.80;1.00
1476;DHT22;730;48.870;12.542;2024-03-08T12:59:07;13.90;1.00
1476;DHT22;730;48.870;12.542;2024-03-08T13:01:34;14.00;1.00
1476;DHT22;730;48.870;12.542;2024-03-08T13:04:03;14.10;1.00
1476;DHT22;730;48.870;12.542;2024-03-08T13:06:30;14.30;1.00
1476;DHT22;730;48.870;12.542;2024-03-08T13:08:57;14.50;1.00
1476;DHT22;730;48.870;12.542;2024-03-08T13:11:24;14.60;1.00
1476;DHT22;730;48.870;12.542;2024-03-08T13:13:51;14.70;1.00
1476;DHT22;730;48.870;12.542;2024-03-08T13:16:18;14.80;1.00
1476;DHT22;730;48.870;12.542;2024-03-08T13:18:48;14.90;1.00
1476;DHT22;730;48.870;12.542;2024-03-08T13:21:15;15.00;1.00
1476;DHT22;730;48.870;12.542;2024-03-08T13:23:44;15.00;1.00
1476;DHT22;730;48.870;12.542;2024-03-08T13:26:16;15.00;1.00
1476;DHT22;730;48.870;12.542;2024-03-08T13:28:43;15.00;1.00
1476;DHT22;730;48.870;12.542;2024-03-08T13:31:09;15.10;1.00
1476;DHT22;730;48.870;12.542;2024-03-08T13:33:36;15.20;1.00
1476;DHT22;730;48.870;12.542;2024-03-08T13:36:08;15.10;1.00
1476;DHT22;730;48.870;12.542;2024-03-08T13:38:45;15.00;1.00
1476;DHT22;730;48.870;12.542;2024-03-08T13:41:12;15.10;1.00
1476;DHT22;730;48.870;12.542;2024-03-08T13:43:41;15.20;1.00
1476;DHT22;730;48.870;12.542;2024-03-08T13:46:07;15.20;1.00
1476;DHT22;730;48.870;12.542;2024-03-08T13:48:34;15.20;1.00
1476;DHT22;730;48.870;12.542;2024-03-08T13:51:00;15.20;1.00
1476;DHT22;730;48.870;12.542;2024-03-08T13:53:26;15.30;1.00
1476;DHT22;730;48.870;12.542;2024-03-08T13:55:52;15.40;1.00
1476;DHT22;730;48.870;12.542;2024-03-08T13:58:18;15.50;1.00
1476;DHT22;730;48.870;12.542;2024-03-08T14:00:46;15.70;1.00
1476;DHT22;730;48.870;12.542;2024-03-08T14:03:13;15.90;1.00
1476;DHT22;730;48.870;12.542;2024-03-08T14:05:40;15.90;1.00
1476;DHT22;730;48.870;12.542;2024-03-08T14:08:08;15.70;1.00
1476;DHT22;730;48.870;12.542;2024-03-08T14:10:37;15.60;1.00
1476;DHT22;730;48.870;12.542;2024-03-08T14:13:04;15.90;1.00
1476;DHT22;730;48.870;12.542;2024-03-08T14:15:34;16.10;1.00
1476;DHT22;730;48.870;12.542;2024-03-08T14:18:09;16.30;1.00
1476;DHT22;730;48.870;12.542;2024-03-08T14:20:35;16.70;1.00
1476;DHT22;730;48.870;12.542;2024-03-08T14:23:02;16.90;1.00
1476;DHT22;730;48.870;12.542;2024-03-08T14:25:31;17.00;1.00
1476;DHT22;730;48.870;12.542;2024-03-08T14:27:57;17.10;1.00
1476;DHT22;730;48.870;12.542;2024-03-08T14:30:27;17.30;1.00
1476;DHT22;730;48.870;12.542;2024-03-08T14:33:06;17.60;1.00
1476;DHT22;730;48.870;12.542;2024-03-08T14:35:35;18.20;1.00
1476;DHT22;730;48.870;12.542;2024-03-08T14:38:02;18.70;1.00
1476;DHT22;730;48.870;12.542;2024-03-08T14:40:29;19.10;1.00
1476;DHT22;730;48.870;12.542;2024-03-08T14:42:56;19.80;1.00
1476;DHT22;730;48.870;12.542;2024-03-08T14:45:22;20.80;1.00
1476;DHT22;730;48.870;12.542;2024-03-08T14:47:50;21.60;1.00
1476;DHT22;730;48.870;12.542;2024-03-08T14:50:17;22.50;1.00
1476;DHT22;730;48.870;12.542;2024-03-08T14:52:44;23.80;1.00
1476;DHT22;730;48.870;12.542;2024-03-08T14:55:12;24.40;1.00
1476;DHT22;730;48.870;12.542;2024-03-08T14:57:41;25.30;1.00
1476;DHT22;730;48.870;12.542;2024-03-08T15:00:08;26.00;1.00
1476;DHT22;730;48.870;12.542;2024-03-08T15:02:45;26.70;1.00
1476;DHT22;730;48.870;12.542;2024-03-08T15:05:13;27.70;1.00
1476;DHT22;730;48.870;12.542;2024-03-08T15:07:40;27.70;1.00
1476;DHT22;730;48.870;12.542;2024-03-08T15:10:07;28.10;1.00
1476;DHT22;730;48.870;12.542;2024-03-08T15:12:40;28.50;1.00
1476;DHT22;730;48.870;12.542;2024-03-08T15:15:07;29.00;1.00
1476;DHT22;730;48.870;12.542;2024-03-08T15:17:36;28.60;1.00
1476;DHT22;730;48.870;12.542;2024-03-08T15:20:08;28.50;1.00
1476;DHT22;730;48.870;12.542;2024-03-08T15:22:51;27.60;1.00
1476;DHT22;730;48.870;12.542;2024-03-08T15:25:24;27.40;1.00
1476;DHT22;730;48.870;12.542;2024-03-08T15:27:54;27.20;1.00
1476;DHT22;730;48.870;12.542;2024-03-08T15:30:20;26.90;1.00
1476;DHT22;730;48.870;12.542;2024-03-08T15:32:52;26.90;1.00
1476;DHT22;730;48.870;12.542;2024-03-08T15:35:26;26.00;1.00
1476;DHT22;730;48.870;12.542;2024-03-08T15:37:53;25.60;1.00
1476;DHT22;730;48.870;12.542;2024-03-08T15:40:23;25.40;1.00
1476;DHT22;730;48.870;12.542;2024-03-08T15:42:57;25.40;1.00
1476;DHT22;730;48.870;12.542;2024-03-08T15:45:24;25.50;1.00
1476;DHT22;730;48.870;12.542;2024-03-08T15:47:55;25.40;1.00
1476;DHT22;730;48.870;12.542;2024-03-08T15:50:21;25.40;1.00
1476;DHT22;730;48.870;12.542;2024-03-08T15:52:51;25.50;1.00
1476;DHT22;730;48.870;12.542;2024-03-08T15:55:19;25.30;1.00
1476;DHT22;730;48.870;12.542;2024-03-08T15:57:47;24.80;1.00
1476;DHT22;730;48.870;12.542;2024-03-08T16:00:18;24.40;1.00
1476;DHT22;730;48.870;12.542;2024-03-08T16:03:05;24.10;1.00
1476;DHT22;730;48.870;12.542;2024-03-08T16:05:38;24.30;1.00
1476;DHT22;730;48.870;12.542;2024-03-08T16:08:08;24.20;1.00
1476;DHT22;730;48.870;12.542;2024-03-08T16:10:41;23.80;1.00
1476;DHT22;730;48.870;12.542;2024-03-08T16:13:08;23.20;1.00
1476;DHT22;730;48.870;12.542;2024-03-08T16:15:35;22.80;1.00
1476;DHT22;730;48.870;12.542;2024-03-08T16:18:04;22.30;1.00
1476;DHT22;730;48.870;12.542;2024-03-08T16:20:32;22.30;1.00
1476;DHT22;730;48.870;12.542;2024-03-08T16:22:59;22.20;1.00
1476;DHT22;730;48.870;12.542;2024-03-08T16:25:25;21.80;1.00
1476;DHT22;730;48.870;12.542;2024-03-08T16:27:52;20.80;1.00
1476;DHT22;730;48.870;12.542;2024-03-08T16:30:18;19.40;1.00
1476;DHT22;730;48.870;12.542;2024-03-08T16:32:45;18.20;1.00
1476;DHT22;730;48.870;12.542;2024-03-08T16:35:18;17.00;1.00
1476;DHT22;730;48.870;12.542;2024-03-08T16:37:44;16.10;1.00
1476;DHT22;730;48.870;12.542;2024-03-08T16:40:11;15.40;1.00
1476;DHT22;730;48.870;12.542;2024-03-08T16:42:47;14.80;1.00
1476;DHT22;730;48.870;12.542;2024-03-08T16:45:19;14.30;1.00
1476;DHT22;730;48.870;12.542;2024-03-08T16:47:45;13.90;1.00
1476;DHT22;730;48.870;12.542;2024-03-08T16:50:12;13.50;1.00